Flight Track Log - Related Links

Times and Time Zones

All times are in EDT time to prevent confusion due to time zone crossing. See the ASA525 flight status page for this flight to view local times or setup timezone preferences in your user account.

Time Position Orientation Groundspeed Altitude Reporting Facility
EDT Latitude Longitude Course Direction KTS MPH feet Rate Location/Type
Sat 02:04:21 PM 34.1833 -118.3667 220° Southwest 166 191 2,300  Level Southern California TRACON
Sat 02:05:45 PM 34.1264 -118.4236 220° Southwest 204 235 5,400 2,301 Climbing Los Angeles Center
Sat 02:06:47 PM 34.1739 -118.4856 313° West 249 287 7,900 2,468 Climbing Los Angeles Center
Sat 02:07:49 PM 34.2447 -118.5297 333° Northwest 282 325 10,500 1,984 Climbing Los Angeles Center
Sat 02:08:51 PM 34.3300 -118.5797 334° Northwest 339 390 12,000 2,129 Climbing Los Angeles Center
Sat 02:09:53 PM 34.4239 -118.6350 334° Northwest 376 433 14,900 2,832 Climbing Los Angeles Center
Sat 02:10:56 PM 34.5192 -118.6914 334° Northwest 382 440 17,900 2,736 Climbing Los Angeles Center
Sat 02:11:58 PM 34.6161 -118.7481 334° Northwest 388 447 20,600 2,661 Climbing Los Angeles Center
Sat 02:13:00 PM 34.7372 -118.8233 333° Northwest 408 470 23,400 2,419 Climbing Los Angeles Center
Sat 02:14:02 PM 34.8492 -118.8714 341° North 438 504 25,600 1,984 Climbing Los Angeles Center
Sat 02:15:04 PM 34.9658 -118.9050 347° North 439 505 27,500 1,742 Climbing Los Angeles Center
Sat 02:16:06 PM 35.0892 -118.9419 346° North 456 525 29,200 1,645 Climbing Los Angeles Center
Sat 02:17:08 PM 35.2178 -118.9781 347° North 472 543 30,900 2,081 Climbing Los Angeles Center
Sat 02:18:10 PM 35.3697 -119.0239 346° North 474 545 33,500 1,853 Climbing Los Angeles Center
Sat 02:19:24 PM 35.4914 -119.0600 346° North 460 529 35,100 1,533 Climbing Los Angeles Center
Sat 02:20:27 PM 35.6386 -119.1036 346° North 455 524 37,000 1,392 Climbing Los Angeles Center
Sat 02:21:29 PM 35.7617 -119.1400 347° North 458 527 38,000 484 Climbing Los Angeles Center
Sat 02:22:31 PM 35.8803 -119.1742 347° North 448 516 38,000  Level Los Angeles Center
Sat 02:23:33 PM 36.0233 -119.2183 346° North 444 511 38,000  Level Los Angeles Center
Sat 02:24:35 PM 36.1431 -119.2542 346° North 444 511 38,000  Level Los Angeles Center
Sat 02:25:37 PM 36.2617 -119.2900 346° North 442 509 38,000 532 Level Los Angeles Center
Sat 02:26:39 PM 36.3819 -119.3272 346° North 446 513 39,100 919 Climbing Los Angeles Center
Sat 02:27:41 PM 36.4983 -119.3619 347° North 436 502 39,900 435 Climbing Los Angeles Center
Sat 02:28:43 PM 36.6411 -119.4050 346° North 439 505 40,000 40 Climbing Los Angeles Center
Sat 02:30:10 PM 36.8061 -119.4561 346° North 439 505 40,000  Level Oakland Center
Sat 02:31:12 PM 36.9222 -119.4897 347° North 436 502 40,000  Level Oakland Center
Sat 02:32:14 PM 37.0408 -119.5261 346° North 439 505 40,000  Level Oakland Center
Sat 02:33:15 PM 37.1583 -119.5614 347° North 436 502 40,000  Level Oakland Center
Sat 02:34:17 PM 37.2756 -119.5981 346° North 436 502 40,000  Level Oakland Center
Sat 02:35:19 PM 37.3936 -119.6353 346° North 432 497 40,000  Level Oakland Center
Sat 02:36:20 PM 37.5328 -119.6794 346° North 430 495 40,000  Level Oakland Center
Sat 02:37:22 PM 37.6494 -119.7139 347° North 431 496 40,000  Level Oakland Center
Sat 02:38:24 PM 37.7658 -119.7514 346° North 432 497 40,000  Level Oakland Center
Sat 02:39:25 PM 37.8825 -119.7881 346° North 432 497 40,000  Level Oakland Center
Sat 02:40:27 PM 38.0014 -119.8239 347° North 438 504 40,000  Level Oakland Center
Sat 02:41:28 PM 38.1183 -119.8614 346° North 435 501 40,000  Level Oakland Center
Sat 02:42:30 PM 38.2339 -119.8997 345° North 432 497 40,000  Level Oakland Center
Sat 02:43:32 PM 38.3753 -119.9442 346° North 434 499 40,000  Level Oakland Center
Sat 02:44:33 PM 38.4933 -119.9811 346° North 437 503 40,000  Level Oakland Center
Sat 02:45:35 PM 38.6119 -120.0200 346° North 439 505 40,000  Level Oakland Center
Sat 02:46:36 PM 38.7308 -120.0575 346° North 441 507 40,000  Level Oakland Center
Sat 02:47:38 PM 38.8492 -120.0969 345° North 442 509 40,000  Level Oakland Center
Sat 02:48:39 PM 38.9672 -120.1350 346° North 442 509 40,000  Level Oakland Center
Sat 02:49:41 PM 39.0864 -120.1731 346° North 442 509 40,000  Level Oakland Center
Sat 02:50:42 PM 39.2289 -120.2186 346° North 440 506 40,000  Level Oakland Center
Sat 02:51:44 PM 39.3456 -120.2586 345° North 437 503 40,000  Level Oakland Center
Sat 02:52:45 PM 39.4636 -120.2958 346° North 438 504 40,000  Level Oakland Center
Sat 02:53:46 PM 39.5800 -120.3353 345° North 433 498 40,000  Level Oakland Center
Sat 02:54:48 PM 39.6956 -120.3736 346° North 431 496 40,000  Level Oakland Center
Sat 02:55:49 PM 39.8106 -120.4111 346° North 428 493 40,000  Level Oakland Center
Sat 02:56:51 PM 39.9244 -120.4503 345° North 425 489 40,000  Level Oakland Center
Sat 02:57:52 PM 40.0581 -120.4942 346° North 426 490 40,000  Level Oakland Center
Sat 02:58:54 PM 40.1706 -120.5319 346° North 421 484 40,000  Level Oakland Center
Sat 02:59:55 PM 40.2836 -120.5708 345° North 423 487 40,000  Level Oakland Center
Sat 03:00:57 PM 40.3961 -120.6067 346° North 420 483 40,000  Level Oakland Center
Sat 03:01:58 PM 40.5147 -120.6483 345° North 421 484 40,000  Level Seattle Center
Sat 03:02:59 PM 40.6294 -120.6858 346° North 433 498 40,000  Level Oakland Center
Sat 03:04:01 PM 40.7436 -120.7264 345° North 424 488 40,000  Level Oakland Center
Sat 03:05:02 PM 40.8594 -120.7664 345° North 428 493 40,000  Level Seattle Center
Sat 03:06:03 PM 40.9964 -120.8150 345° North 426 490 40,000  Level Seattle Center
Sat 03:07:05 PM 41.1108 -120.8550 345° North 426 490 40,000  Level Seattle Center
Sat 03:08:06 PM 41.2281 -120.8939 346° North 433 498 40,000  Level Seattle Center
Sat 03:09:07 PM 41.3406 -120.9339 345° North 423 487 40,000  Level Seattle Center
Sat 03:10:08 PM 41.4542 -120.9742 345° North 424 488 40,000  Level Seattle Center
Sat 03:11:09 PM 41.5681 -121.0150 345° North 423 487 40,000  Level Seattle Center
Sat 03:12:11 PM 41.6817 -121.0544 345° North 424 488 40,000  Level Seattle Center
Sat 03:13:12 PM 41.7953 -121.0950 345° North 423 487 40,000  Level Seattle Center
Sat 03:14:13 PM 41.9108 -121.1367 345° North 432 497 40,000  Level Seattle Center
Sat 03:15:14 PM 42.0469 -121.1839 346° North 427 491 40,000  Level Seattle Center
Sat 03:16:15 PM 42.1611 -121.2256 345° North 427 491 40,000  Level Seattle Center
Sat 03:17:17 PM 42.2764 -121.2661 345° North 435 501 40,000  Level Seattle Center
Sat 03:18:18 PM 42.3908 -121.3086 345° North 430 495 40,000  Level Seattle Center
Sat 03:19:19 PM 42.5064 -121.3494 345° North 434 499 40,000  Level Seattle Center
Sat 03:20:20 PM 42.6217 -121.3925 345° North 437 503 40,000  Level Seattle Center
Sat 03:21:22 PM 42.7364 -121.4339 345° North 432 497 40,000  Level Seattle Center
Sat 03:22:23 PM 42.8514 -121.4781 344° North 432 497 40,000  Level Seattle Center
Sat 03:23:24 PM 42.9886 -121.5275 345° North 429 494 40,000  Level Seattle Center
Sat 03:24:25 PM 43.1031 -121.5683 345° North 427 491 40,000  Level Seattle Center
Sat 03:25:26 PM 43.2194 -121.6100 345° North 431 496 40,000  Level Seattle Center
Sat 03:26:28 PM 43.3350 -121.6536 345° North 431 496 40,000  Level Seattle Center
Sat 03:27:29 PM 43.4506 -121.6964 345° North 431 496 40,000  Level Seattle Center
Sat 03:28:30 PM 43.5661 -121.7400 345° North 432 497 40,000  Level Seattle Center
Sat 03:29:31 PM 43.6817 -121.7847 344° North 431 496 40,000  Level Seattle Center
Sat 03:30:32 PM 43.7975 -121.8281 345° North 433 498 40,000  Level Seattle Center
Sat 03:31:34 PM 43.9331 -121.8794 345° North 442 509 40,000  Level Seattle Center
Sat 03:32:35 PM 44.0436 -121.9186 346° North 443 510 40,000  Level Seattle Center
Sat 03:33:36 PM 44.1608 -121.9644 344° North 441 507 40,000  Level Seattle Center
Sat 03:34:37 PM 44.2789 -122.0086 345° North 442 509 40,000  Level Seattle Center
Sat 03:35:39 PM 44.4200 -122.0642 344° North 440 506 40,000  Level Seattle Center
Sat 03:36:40 PM 44.5356 -122.1086 345° North 435 501 40,000  Level Seattle Center
Sat 03:37:41 PM 44.6528 -122.1550 344° North 437 503 40,000  Level Seattle Center
Sat 03:38:42 PM 44.7681 -122.2006 344° North 434 499 40,000  Level Seattle Center
Sat 03:39:44 PM 44.8739 -122.2422 344° North 433 498 40,000  Level Seattle Center
Sat 03:40:45 PM 44.9864 -122.2878 344° North 425 489 40,000  Level Seattle Center
Sat 03:41:46 PM 45.1267 -122.3419 345° North 438 504 40,000  Level Seattle Center
Sat 03:42:47 PM 45.2422 -122.3881 344° North 436 502 40,000  Level Seattle Center
Sat 03:43:48 PM 45.3564 -122.4333 344° North 431 496 40,000 -439 Level Seattle Center
Sat 03:44:50 PM 45.4717 -122.4806 344° North 433 498 39,100 -878 Descending Seattle Center
Sat 03:45:51 PM 45.5906 -122.5278 344° North 443 510 38,200 -1,131 Descending Seattle Center
Sat 03:46:52 PM 45.7075 -122.5731 345° North 440 506 36,800 -2,262 Descending Seattle Center
Sat 03:47:53 PM 45.8264 -122.6089 348° North 440 506 33,600 -3,344 Descending Seattle Center
Sat 03:48:54 PM 45.9475 -122.6400 350° North 445 512 30,000 -2,951 Descending Seattle Center
Sat 03:49:55 PM 46.0936 -122.6775 350° North 446 513 27,600 -2,244 Descending Seattle Center
Sat 03:50:57 PM 46.2022 -122.6972 353° North 406 467 25,400 -2,049 Descending Seattle Center
Sat 03:51:58 PM 46.3008 -122.7092 355° North 401 461 23,400 -2,361 Descending Seattle Center
Sat 03:52:59 PM 46.4086 -122.6822 10° North 398 458 20,600 -2,803 Descending Seattle Center
Sat 03:54:00 PM 46.5339 -122.6569 North 380 437 17,700 -2,656 Descending Seattle Center
Sat 03:55:01 PM 46.6331 -122.6350 North 365 420 15,200 -2,361 Descending Seattle Center
Sat 03:56:02 PM 46.7350 -122.6125 North 354 407 12,900 -2,049 Descending Seattle Center
Sat 03:57:04 PM 46.8269 -122.5911 North 337 388 11,000 -1,415 Descending Seattle Center
Sat 03:58:05 PM 46.9142 -122.5700 North 318 366 10,000 -1,171 Descending Seattle Center
Sat 03:59:07 PM 46.9781 -122.4869 42° Northeast 288 331 8,600 -1,268 Descending Seattle Center
Sat 04:00:08 PM 47.0314 -122.4092 45° Northeast 271 312 7,400 -1,073 Descending Seattle Center
Sat 04:01:10 PM 47.0847 -122.3342 44° Northeast 267 307 6,400 -1,024 Descending Seattle Center
Sat 04:02:11 PM 47.1658 -122.3194 North 273 314 5,300 -1,033 Descending Seattle Center
Sat 04:03:12 PM 47.2408 -122.3197 360° North 272 313 4,300 -1,180 Descending Seattle Center
Sat 04:04:13 PM 47.3092 -122.3189 360° North 242 278 2,900 -1,180 Descending Seattle Center
Sat 04:05:14 PM 47.3628 -122.3186 360° North 195 224 1,900 -885 Descending Seattle Center
Sat 04:06:15 PM 47.4072 -122.3186 360° North 150 173 1,100 -738 Descending Seattle Center
Sat 04:07:16 PM 47.4442 -122.3181 North 136 157 400 -689 Descending Seattle Center
Sat 04:09:00 PM 47.4499 -122.3118 37° Northeast  Level Estimated

Login

Don't have an account? Register now (free) for customized features, flight alerts, and more!